PABT

Details ICAO PABT (BTT)
Name BETTLES
Region USA (Alaska)
Timezone America/Anchorage (UTC-9.0)
Plans Departing 9
Arriving 13
Stats Elevation 644 ft / 196 m (AMSL)
Location 66.913940° -151.529042°
Runways 1
Magnetic Variation 16.436° E
Sunrise 2017-12-15 21:06:23 UTC / 2017-12-15 12:06:23 Local
Sunset 2017-12-15 22:59:20 UTC / 2017-12-15 13:59:20 Local
Advertisement - Login to hide

Runways

ID Width Length Bearing (true) Bearing (mag) Surface Threshold Offset Overrun Length
01 150 ft / 46 m 5,174 ft / 1,577 m 32.24° 15.80° Gravel 0 ft / 0 m 0 ft / 0 m
19 150 ft / 46 m 5,174 ft / 1,577 m 212.26° 195.82° Gravel 0 ft / 0 m 0 ft / 0 m

Approach Navaids

Runway Type Ident Frequency Range Bearing (true) Bearing (mag) Slope Elevation
01 Localiser IBTT 108.70 MHz 18 nm / 33 km 32.79° 16.36° - 633 ft / 193 m (AMSL)
01 DME IBTT 108.70 MHz 18 nm / 33 km - - - 653 ft / 199 m (AMSL)

Map

Weather


0- 5 10 15 20 25 30 35+ Temperature / ° C

Clouds and Precipitation
Forecast for 2017-12-16 06:00 UTC. Updated 38 minutes ago

Ground ~20,000 ft ~40,000 ft Winds

METAR

PABT 160053Z 03008KT 3SM -SN BR SCT012 OVC030 M06/M08 A2946 RMK AO2 SLP991 T10561078

TAF

TAF PABT 152320Z 1600/1624 02010KT 2SM -SN BR VCSH OVC012 FM160700 02006KT 5SM -SN BR BKN015 BKN040 FM161600 02004KT 4SM -SN OVC025

Frequencies

Recorded 135.45 MHz ASOS
Unicom 122.90 MHz CTAF
Warning: Do not use this data for real-world aviation or navigation. No guarantee of current accuracy is given.